createdAt,value
2022-08-20T00:00:22.398Z,88.08
2022-08-20T00:02:54.258Z,87.82
2022-08-20T00:05:25.053Z,86.73
2022-08-20T00:07:52.940Z,86.05
2022-08-20T00:10:21.233Z,85.51
2022-08-20T00:12:50.961Z,85.52
2022-08-20T00:15:23.578Z,86.14
2022-08-20T00:17:52.656Z,85.49
2022-08-20T00:20:23.237Z,85.84
2022-08-20T00:22:51.121Z,86.42
2022-08-20T00:25:19.193Z,86.01
2022-08-20T00:27:46.860Z,86.12
2022-08-20T00:30:16.354Z,86.33
2022-08-20T00:32:48.175Z,86.09
2022-08-20T00:35:17.314Z,85.91
2022-08-20T00:37:45.402Z,85.87
2022-08-20T00:40:22.038Z,85.68
2022-08-20T00:42:54.045Z,86.05
2022-08-20T00:45:22.439Z,85.61
2022-08-20T00:47:52.054Z,86.13
2022-08-20T00:50:27.294Z,86.33
2022-08-20T00:52:55.449Z,86.63
2022-08-20T00:55:31.088Z,87.20
2022-08-20T00:58:03.965Z,87.55
2022-08-20T01:00:34.449Z,87.27
2022-08-20T01:03:03.968Z,88.00
2022-08-20T01:05:31.931Z,87.81
2022-08-20T01:08:00.774Z,88.32
2022-08-20T01:10:34.661Z,88.41
2022-08-20T01:13:08.416Z,88.64
2022-08-20T01:15:43.017Z,88.82
2022-08-20T01:18:14.579Z,89.37
2022-08-20T01:20:45.270Z,89.76
2022-08-20T01:23:30.372Z,90.26
2022-08-20T01:26:06.040Z,90.09
2022-08-20T01:28:39.405Z,90.39
2022-08-20T01:31:09.004Z,90.96
2022-08-20T01:33:37.066Z,91.33
2022-08-20T01:36:05.791Z,91.11
2022-08-20T01:38:34.830Z,91.15
2022-08-20T01:41:22.783Z,92.86
2022-08-20T01:43:57.211Z,92.75
2022-08-20T01:46:28.803Z,93.40
2022-08-20T01:48:58.349Z,93.15
2022-08-20T01:51:29.572Z,93.54
2022-08-20T01:54:00.017Z,93.59
2022-08-20T01:56:31.483Z,93.55
2022-08-20T01:59:02.745Z,93.73
2022-08-20T02:01:45.867Z,93.78
2022-08-20T02:04:16.769Z,94.21
2022-08-20T02:06:56.784Z,94.18
2022-08-20T02:09:27.228Z,94.39
2022-08-20T02:11:57.454Z,95.58
2022-08-20T02:14:26.490Z,94.17
2022-08-20T02:16:54.963Z,94.72
2022-08-20T02:19:29.046Z,95.72
2022-08-20T02:22:02.822Z,95.52
2022-08-20T02:24:31.147Z,95.24
2022-08-20T02:27:03.509Z,94.16
2022-08-20T02:29:31.219Z,94.66
2022-08-20T02:32:31.178Z,95.13
2022-08-20T02:34:46.814Z,95.61
2022-08-20T02:37:16.483Z,95.80
2022-08-20T02:39:44.231Z,96.17
2022-08-20T02:42:13.339Z,94.90
2022-08-20T02:44:41.476Z,95.75
2022-08-20T02:47:09.395Z,96.14
2022-08-20T02:49:37.175Z,95.94
2022-08-20T02:52:05.394Z,95.90
2022-08-20T02:54:33.125Z,97.22
2022-08-20T02:57:02.282Z,96.63
2022-08-20T02:59:31.511Z,96.12
2022-08-20T03:02:00.271Z,96.36
2022-08-20T03:04:29.061Z,95.91
2022-08-20T03:06:56.952Z,96.16
2022-08-20T03:09:24.751Z,96.86
2022-08-20T03:11:52.823Z,96.12
2022-08-20T03:14:20.715Z,97.02
2022-08-20T03:16:49.998Z,96.17
2022-08-20T03:19:17.808Z,97.31
2022-08-20T03:21:45.679Z,97.05
2022-08-20T03:24:13.563Z,96.03
2022-08-20T03:26:41.374Z,95.48
2022-08-20T03:29:09.412Z,95.83
2022-08-20T03:31:37.499Z,96.95
2022-08-20T03:34:07.117Z,95.92
2022-08-20T03:36:34.922Z,95.61
2022-08-20T03:39:11.613Z,95.51
2022-08-20T03:41:39.646Z,96.25
2022-08-20T03:44:07.823Z,97.09
2022-08-20T03:46:36.046Z,96.03
2022-08-20T03:49:04.443Z,96.20
2022-08-20T03:51:45.825Z,96.30
2022-08-20T03:54:22.132Z,97.38
2022-08-20T03:56:49.991Z,97.93
2022-08-20T03:59:17.790Z,97.25
2022-08-20T04:01:46.743Z,97.28
2022-08-20T04:04:15.068Z,96.56
2022-08-20T04:06:44.297Z,96.97
2022-08-20T04:09:12.600Z,96.86
2022-08-20T04:11:40.470Z,96.84
2022-08-20T04:14:09.256Z,97.20
2022-08-20T04:16:40.375Z,97.17
2022-08-20T04:19:09.222Z,97.21
2022-08-20T04:21:37.843Z,97.14
2022-08-20T04:24:07.622Z,98.18
2022-08-20T04:26:49.859Z,97.62
2022-08-20T04:29:17.514Z,98.05
2022-08-20T04:31:45.215Z,98.77
2022-08-20T04:34:13.391Z,99.02
2022-08-20T04:36:41.433Z,99.09
2022-08-20T04:39:10.418Z,99.59
2022-08-20T04:41:38.059Z,99.75
2022-08-20T04:44:05.729Z,100.00
2022-08-20T04:46:33.568Z,100.00
2022-08-20T04:49:03.291Z,100.00
2022-08-20T04:51:31.748Z,100.00
2022-08-20T04:53:59.833Z,100.00
2022-08-20T04:56:31.562Z,100.00
2022-08-20T04:59:01.830Z,100.00
2022-08-20T05:01:29.941Z,100.00
2022-08-20T05:03:59.137Z,100.00
2022-08-20T05:06:30.543Z,100.00
2022-08-20T05:09:00.101Z,100.00
2022-08-20T05:11:35.324Z,100.00
2022-08-20T05:14:05.404Z,100.00
2022-08-20T05:16:37.812Z,100.00
2022-08-20T05:19:05.980Z,100.00
2022-08-20T05:21:33.955Z,100.00
2022-08-20T05:24:03.046Z,100.00
2022-08-20T05:26:33.145Z,100.00
2022-08-20T05:29:00.870Z,100.00
2022-08-20T05:31:31.607Z,100.00
2022-08-20T05:34:01.851Z,100.00
2022-08-20T05:36:29.932Z,100.00
2022-08-20T05:38:57.898Z,100.00
2022-08-20T05:41:29.227Z,100.00
2022-08-20T05:44:01.577Z,100.00
2022-08-20T05:46:32.276Z,100.00
2022-08-20T05:49:01.749Z,100.00
2022-08-20T05:51:29.805Z,100.00
2022-08-20T05:53:59.412Z,100.00
2022-08-20T05:56:30.786Z,100.00
2022-08-20T05:59:03.470Z,100.00
2022-08-20T06:01:31.342Z,100.00
2022-08-20T06:04:17.101Z,100.00
2022-08-20T06:06:47.134Z,100.00
2022-08-20T06:09:31.438Z,100.00
2022-08-20T06:12:00.359Z,100.00
2022-08-20T06:14:29.541Z,100.00
2022-08-20T06:17:03.583Z,100.00
2022-08-20T06:19:32.763Z,100.00
2022-08-20T06:22:01.062Z,100.00
2022-08-20T06:24:29.036Z,100.00
2022-08-20T06:26:57.430Z,100.00
2022-08-20T06:29:25.111Z,100.00
2022-08-20T06:31:54.215Z,100.00
2022-08-20T06:34:21.896Z,100.00
2022-08-20T06:36:49.804Z,100.00
2022-08-20T06:39:18.482Z,100.00
2022-08-20T06:41:46.235Z,100.00
2022-08-20T06:44:14.254Z,100.00
2022-08-20T06:46:43.314Z,100.00
2022-08-20T06:49:13.604Z,100.00
2022-08-20T06:51:41.541Z,100.00
2022-08-20T06:54:09.376Z,100.00
2022-08-20T06:56:37.120Z,100.00
2022-08-20T06:59:04.866Z,100.00
2022-08-20T07:01:32.876Z,100.00
2022-08-20T07:04:00.647Z,100.00
2022-08-20T07:06:29.895Z,100.00
2022-08-20T07:08:57.932Z,100.00
2022-08-20T07:11:28.404Z,100.00
2022-08-20T07:13:59.302Z,100.00
2022-08-20T07:16:27.978Z,100.00
2022-08-20T07:18:56.922Z,100.00
2022-08-20T07:21:24.745Z,100.00
2022-08-20T07:23:54.931Z,100.00
2022-08-20T07:26:23.087Z,100.00
2022-08-20T07:28:50.847Z,100.00
2022-08-20T07:31:35.990Z,100.00
2022-08-20T07:34:04.344Z,99.19
2022-08-20T07:36:32.382Z,98.31
2022-08-20T07:39:06.031Z,98.78
2022-08-20T07:41:34.444Z,96.91
2022-08-20T07:44:02.381Z,96.70
2022-08-20T07:46:31.649Z,96.20
2022-08-20T07:49:00.012Z,95.17
2022-08-20T07:51:28.556Z,94.13
2022-08-20T07:53:58.133Z,92.94
2022-08-20T07:56:28.002Z,89.74
2022-08-20T07:58:59.316Z,88.22
2022-08-20T08:01:30.403Z,89.54
2022-08-20T08:03:59.379Z,89.02
2022-08-20T08:06:31.115Z,88.27
2022-08-20T08:09:04.019Z,88.54
2022-08-20T08:11:39.698Z,86.73
2022-08-20T08:14:09.430Z,85.92
2022-08-20T08:16:38.110Z,83.87
2022-08-20T08:19:12.127Z,82.42
2022-08-20T08:21:39.976Z,81.23
2022-08-20T08:24:08.325Z,80.42
2022-08-20T08:26:37.412Z,81.07
2022-08-20T08:29:07.500Z,80.00
2022-08-20T08:31:35.350Z,79.88
2022-08-20T08:34:03.135Z,78.18
2022-08-20T08:36:30.911Z,77.11
2022-08-20T08:38:58.561Z,76.73
2022-08-20T08:41:32.095Z,76.55
2022-08-20T08:44:08.065Z,75.73
2022-08-20T08:46:41.283Z,76.02
2022-08-20T08:49:13.098Z,74.01
2022-08-20T08:51:43.666Z,71.57
2022-08-20T08:54:16.861Z,70.46
2022-08-20T08:56:50.409Z,65.61
2022-08-20T08:59:21.294Z,61.20
2022-08-20T09:01:55.465Z,62.06
2022-08-20T09:04:31.648Z,64.52
2022-08-20T09:07:00.963Z,62.16
2022-08-20T09:09:33.779Z,59.79
2022-08-20T09:12:06.290Z,59.07
2022-08-20T09:14:38.745Z,59.22
2022-08-20T09:17:07.201Z,59.55
2022-08-20T09:19:34.995Z,61.30
2022-08-20T09:22:08.534Z,60.89
2022-08-20T09:24:36.269Z,63.16
2022-08-20T09:27:03.971Z,61.60
2022-08-20T09:29:32.633Z,60.96
2022-08-20T09:32:13.336Z,60.35
2022-08-20T09:34:43.451Z,56.16
2022-08-20T09:37:12.356Z,58.52
2022-08-20T09:39:40.753Z,59.62
2022-08-20T09:42:10.082Z,59.71
2022-08-20T09:44:37.743Z,57.15
2022-08-20T09:47:05.742Z,55.34
2022-08-20T09:49:35.010Z,54.16
2022-08-20T09:52:04.378Z,54.69
2022-08-20T09:54:33.738Z,53.42
2022-08-20T09:57:04.473Z,51.17
2022-08-20T09:59:33.343Z,50.44
2022-08-20T10:02:01.063Z,50.15
2022-08-20T10:04:28.797Z,49.75
2022-08-20T10:06:58.223Z,47.62
2022-08-20T10:09:26.827Z,46.31
2022-08-20T10:11:54.471Z,43.61
2022-08-20T10:14:22.174Z,44.60
2022-08-20T10:16:59.196Z,44.91
2022-08-20T10:19:28.662Z,45.27
2022-08-20T10:21:58.880Z,46.96
2022-08-20T10:24:27.121Z,48.87
2022-08-20T10:26:57.130Z,49.97
2022-08-20T10:29:25.006Z,50.16
2022-08-20T10:31:53.198Z,47.04
2022-08-20T10:34:20.943Z,45.69
2022-08-20T10:36:48.585Z,45.74
2022-08-20T10:39:17.625Z,46.40
2022-08-20T10:41:45.263Z,46.74
2022-08-20T10:44:12.876Z,45.54
2022-08-20T10:46:40.566Z,43.74
2022-08-20T10:49:08.259Z,41.14
2022-08-20T10:51:35.931Z,40.04
2022-08-20T10:54:08.183Z,41.47
2022-08-20T10:56:41.522Z,40.69
2022-08-20T10:59:09.348Z,40.87
2022-08-20T11:01:37.276Z,41.40
2022-08-20T11:04:05.767Z,41.87
2022-08-20T11:06:33.432Z,41.27
2022-08-20T11:09:01.230Z,41.63
2022-08-20T11:11:29.815Z,41.83
2022-08-20T11:14:00.254Z,41.87
2022-08-20T11:16:27.928Z,42.53
2022-08-20T11:18:55.562Z,43.03
2022-08-20T11:21:23.435Z,43.60
2022-08-20T11:23:51.095Z,43.59
2022-08-20T11:26:23.036Z,42.25
2022-08-20T11:28:50.713Z,43.55
2022-08-20T11:31:19.744Z,43.41
2022-08-20T11:33:47.431Z,41.89
2022-08-20T11:36:15.062Z,39.84
2022-08-20T11:38:42.943Z,38.12
2022-08-20T11:41:10.625Z,38.00
2022-08-20T11:43:38.262Z,33.26
2022-08-20T11:46:06.099Z,33.97
2022-08-20T11:48:35.190Z,34.12
2022-08-20T11:51:02.886Z,33.64
2022-08-20T11:53:30.774Z,34.30
2022-08-20T11:56:00.170Z,34.26
2022-08-20T11:58:28.351Z,32.69
2022-08-20T12:00:56.028Z,30.99
2022-08-20T12:03:23.796Z,29.37
2022-08-20T12:05:52.918Z,29.32
2022-08-20T12:08:27.655Z,28.37
2022-08-20T12:10:56.988Z,28.05
2022-08-20T12:13:30.795Z,27.90
2022-08-20T12:16:12.305Z,27.92
2022-08-20T12:18:40.028Z,27.18
2022-08-20T12:21:08.981Z,27.40
2022-08-20T12:23:36.643Z,26.81
2022-08-20T12:26:04.430Z,27.08
2022-08-20T12:28:32.705Z,27.31
2022-08-20T12:31:00.352Z,27.15
2022-08-20T12:33:27.986Z,26.96
2022-08-20T12:35:55.729Z,27.29
2022-08-20T12:38:24.910Z,26.97
2022-08-20T12:40:52.613Z,27.20
2022-08-20T12:43:24.644Z,25.88
2022-08-20T12:45:52.759Z,25.90
2022-08-20T12:48:21.181Z,26.20
2022-08-20T12:50:50.034Z,25.51
2022-08-20T12:53:17.681Z,25.57
2022-08-20T12:55:47.074Z,25.86
2022-08-20T12:58:14.802Z,25.62
2022-08-20T13:00:48.586Z,25.53
2022-08-20T13:03:18.464Z,26.13
2022-08-20T13:05:46.263Z,25.50
2022-08-20T13:08:14.180Z,25.27
2022-08-20T13:10:45.645Z,24.99
2022-08-20T13:13:17.509Z,25.36
2022-08-20T13:15:48.858Z,24.78
2022-08-20T13:18:16.734Z,22.81
2022-08-20T13:20:44.791Z,20.95
2022-08-20T13:23:12.443Z,22.00
2022-08-20T13:25:40.116Z,21.98
2022-08-20T13:28:08.060Z,22.72
2022-08-20T13:30:38.684Z,22.22
2022-08-20T13:33:06.423Z,22.64
2022-08-20T13:35:34.660Z,22.47
2022-08-20T13:38:02.311Z,22.81
2022-08-20T13:40:30.030Z,22.33
2022-08-20T13:42:57.963Z,22.10
2022-08-20T13:45:25.751Z,22.16
2022-08-20T13:47:55.982Z,22.22
2022-08-20T13:50:25.880Z,21.54
2022-08-20T13:52:53.875Z,21.60
2022-08-20T13:55:24.308Z,21.34
2022-08-20T13:57:53.065Z,21.61
2022-08-20T14:00:31.462Z,21.59
2022-08-20T14:03:01.639Z,22.08
2022-08-20T14:05:29.586Z,22.39
2022-08-20T14:07:57.606Z,21.74
2022-08-20T14:10:31.304Z,21.74
2022-08-20T14:12:59.575Z,21.82
2022-08-20T14:15:27.468Z,21.94
2022-08-20T14:17:57.310Z,21.52
2022-08-20T14:20:29.491Z,21.82
2022-08-20T14:23:01.035Z,22.00
2022-08-20T14:25:29.367Z,21.84
2022-08-20T14:27:57.857Z,22.01
2022-08-20T14:30:27.815Z,22.41
2022-08-20T14:32:56.028Z,22.83
2022-08-20T14:35:24.455Z,23.51
2022-08-20T14:37:56.441Z,23.95
2022-08-20T14:40:26.770Z,23.46
2022-08-20T14:42:55.305Z,23.12
2022-08-20T14:45:23.878Z,22.95
2022-08-20T14:47:54.162Z,22.84
2022-08-20T14:50:26.049Z,23.65
2022-08-20T14:52:55.914Z,23.64
2022-08-20T14:55:25.994Z,23.51
2022-08-20T14:57:54.107Z,22.70
2022-08-20T15:00:24.101Z,22.58
2022-08-20T15:02:52.388Z,22.68
2022-08-20T15:05:20.212Z,22.42
2022-08-20T15:07:51.868Z,22.87
2022-08-20T15:10:26.117Z,22.48
2022-08-20T15:12:53.899Z,22.58
2022-08-20T15:15:22.630Z,22.52
2022-08-20T15:17:52.285Z,22.37
2022-08-20T15:20:22.399Z,22.27
2022-08-20T15:22:50.955Z,22.17
2022-08-20T15:25:21.903Z,22.16
2022-08-20T15:27:51.742Z,22.30
2022-08-20T15:30:22.170Z,21.00
2022-08-20T15:32:54.816Z,21.38
2022-08-20T15:35:24.306Z,21.41
2022-08-20T15:37:54.792Z,21.20
2022-08-20T15:40:28.212Z,21.18
2022-08-20T15:42:58.587Z,21.03
2022-08-20T15:45:26.981Z,21.43
2022-08-20T15:48:00.202Z,21.31
2022-08-20T15:51:00.223Z,22.85
2022-08-20T15:53:32.884Z,22.93
2022-08-20T15:56:11.228Z,23.10
2022-08-20T15:58:52.519Z,24.27
2022-08-20T16:01:33.743Z,24.60
2022-08-20T16:04:22.299Z,24.70
2022-08-20T16:06:52.758Z,24.45
2022-08-20T16:09:41.298Z,24.70
2022-08-20T16:12:12.552Z,25.75
2022-08-20T16:14:45.779Z,26.20
2022-08-20T16:17:18.042Z,26.30
2022-08-20T16:19:57.177Z,26.40
2022-08-20T16:22:28.044Z,26.35
2022-08-20T16:24:55.818Z,26.66
2022-08-20T16:27:35.334Z,27.07
2022-08-20T16:30:08.478Z,27.17
2022-08-20T16:32:44.133Z,27.78
2022-08-20T16:35:29.644Z,28.19
2022-08-20T16:38:07.732Z,27.93
2022-08-20T16:40:44.193Z,28.42
2022-08-20T16:43:24.263Z,28.16
2022-08-20T16:45:59.955Z,28.42
2022-08-20T16:48:34.852Z,29.04
2022-08-20T16:51:07.477Z,29.15
2022-08-20T16:53:36.719Z,28.77
2022-08-20T16:56:05.282Z,28.78
2022-08-20T16:58:33.140Z,28.71
2022-08-20T17:01:08.971Z,28.72
2022-08-20T17:03:40.476Z,28.78
2022-08-20T17:06:18.311Z,28.74
2022-08-20T17:08:49.901Z,28.86
2022-08-20T17:11:24.654Z,28.41
2022-08-20T17:14:08.329Z,28.38
2022-08-20T17:16:40.059Z,28.63
2022-08-20T17:19:12.270Z,29.00
2022-08-20T17:21:41.290Z,29.29
2022-08-20T17:24:16.865Z,29.39
2022-08-20T17:26:47.849Z,29.66
2022-08-20T17:29:18.441Z,29.68
2022-08-20T17:31:50.488Z,29.57
2022-08-20T17:34:20.653Z,29.91
2022-08-20T17:36:52.314Z,29.90
2022-08-20T17:39:21.410Z,29.84
2022-08-20T17:41:51.362Z,30.24
2022-08-20T17:44:23.086Z,30.45
2022-08-20T17:46:53.624Z,30.41
2022-08-20T17:49:34.650Z,30.56
2022-08-20T17:52:05.745Z,31.37
2022-08-20T17:54:38.250Z,31.79
2022-08-20T17:57:10.599Z,32.14
2022-08-20T18:00:01.356Z,32.22
2022-08-20T18:02:32.239Z,32.19
2022-08-20T18:04:59.958Z,32.40
2022-08-20T18:07:32.186Z,32.75
2022-08-20T18:10:07.243Z,32.58
2022-08-20T18:12:41.391Z,33.04
2022-08-20T18:15:14.527Z,33.22
2022-08-20T18:18:03.231Z,33.52
2022-08-20T18:20:43.905Z,33.61
2022-08-20T18:23:15.775Z,34.27
2022-08-20T18:25:48.254Z,34.49
2022-08-20T18:28:19.943Z,35.14
2022-08-20T18:30:51.584Z,35.89
2022-08-20T18:33:29.958Z,36.20
2022-08-20T18:36:10.002Z,36.67
2022-08-20T18:38:41.903Z,37.02
2022-08-20T18:41:16.546Z,37.42
2022-08-20T18:43:44.766Z,37.71
2022-08-20T18:46:21.863Z,38.43
2022-08-20T18:48:57.843Z,38.98
2022-08-20T18:51:32.565Z,38.99
2022-08-20T18:54:00.440Z,39.48
2022-08-20T18:56:40.699Z,40.06
2022-08-20T18:59:18.105Z,40.37
2022-08-20T19:01:48.755Z,41.17
2022-08-20T19:04:28.508Z,41.15
2022-08-20T19:07:00.005Z,41.24
2022-08-20T19:09:43.271Z,42.38
2022-08-20T19:12:24.058Z,42.74
2022-08-20T19:14:59.332Z,42.49
2022-08-20T19:17:42.515Z,42.67
2022-08-20T19:20:19.159Z,43.80
2022-08-20T19:22:48.494Z,44.19
2022-08-20T19:25:29.242Z,43.57
2022-08-20T19:27:58.031Z,44.34
2022-08-20T19:30:35.454Z,44.32
2022-08-20T19:33:03.669Z,44.72
2022-08-20T19:35:33.153Z,44.63
2022-08-20T19:38:02.192Z,44.88
2022-08-20T19:40:33.003Z,45.47
2022-08-20T19:43:12.152Z,45.92
2022-08-20T19:45:42.587Z,46.13
2022-08-20T19:48:31.981Z,46.53
2022-08-20T19:51:10.114Z,46.73
2022-08-20T19:53:44.078Z,47.10
2022-08-20T19:56:15.854Z,47.64
2022-08-20T19:58:43.905Z,48.08
2022-08-20T20:01:17.584Z,47.89
2022-08-20T20:03:56.672Z,48.34
2022-08-20T20:06:26.951Z,48.23
2022-08-20T20:08:58.908Z,48.63
2022-08-20T20:11:34.264Z,49.31
2022-08-20T20:14:05.080Z,49.44
2022-08-20T20:16:34.448Z,49.85
2022-08-20T20:19:25.404Z,50.05
2022-08-20T20:22:01.844Z,50.55
2022-08-20T20:24:31.945Z,51.04
2022-08-20T20:27:00.471Z,51.33
2022-08-20T20:29:34.904Z,51.89
2022-08-20T20:32:16.062Z,53.02
2022-08-20T20:34:55.379Z,53.23
2022-08-20T20:37:44.646Z,54.18
2022-08-20T20:40:25.675Z,54.33
2022-08-20T20:43:03.530Z,55.58
2022-08-20T20:45:35.614Z,56.30
2022-08-20T20:48:15.600Z,56.93
2022-08-20T20:50:43.345Z,58.15
2022-08-20T20:53:13.169Z,58.97
2022-08-20T20:55:42.647Z,59.30
2022-08-20T20:58:10.300Z,60.56
2022-08-20T21:00:37.948Z,61.83
2022-08-20T21:03:05.690Z,62.37
2022-08-20T21:05:33.834Z,62.37
2022-08-20T21:08:04.031Z,62.66
2022-08-20T21:10:37.017Z,62.90
2022-08-20T21:13:05.298Z,63.59
2022-08-20T21:15:34.686Z,64.48
2022-08-20T21:18:03.637Z,65.34
2022-08-20T21:20:32.498Z,66.32
2022-08-20T21:23:00.190Z,67.68
2022-08-20T21:25:29.979Z,67.59
2022-08-20T21:27:59.163Z,68.01
2022-08-20T21:30:28.102Z,67.51
2022-08-20T21:32:55.966Z,68.87
2022-08-20T21:35:23.677Z,68.84
2022-08-20T21:37:51.798Z,69.56
2022-08-20T21:40:21.590Z,70.32
2022-08-20T21:42:50.058Z,71.07
2022-08-20T21:45:20.507Z,71.65
2022-08-20T21:47:49.101Z,71.87
2022-08-20T21:50:18.639Z,72.05
2022-08-20T21:52:52.491Z,70.96
2022-08-20T21:55:29.075Z,72.84
2022-08-20T21:57:56.925Z,72.55
2022-08-20T22:00:49.826Z,72.42
2022-08-20T22:03:20.221Z,72.30
2022-08-20T22:05:48.605Z,73.54
2022-08-20T22:08:16.324Z,72.57
2022-08-20T22:10:44.018Z,73.16
2022-08-20T22:13:12.029Z,73.72
2022-08-20T22:15:40.476Z,74.46
2022-08-20T22:18:09.933Z,75.81
2022-08-20T22:20:37.755Z,76.50
2022-08-20T22:23:06.873Z,77.03
2022-08-20T22:25:35.665Z,77.07
2022-08-20T22:28:03.555Z,77.47
2022-08-20T22:30:32.455Z,78.82
2022-08-20T22:33:03.277Z,80.08
2022-08-20T22:35:33.303Z,81.18
2022-08-20T22:38:01.215Z,81.38
2022-08-20T22:40:28.665Z,80.90
2022-08-20T22:42:56.323Z,81.14
2022-08-20T22:45:24.282Z,81.37
2022-08-20T22:47:51.820Z,83.00
2022-08-20T22:50:20.470Z,83.62
2022-08-20T22:52:49.306Z,83.99
2022-08-20T22:55:17.068Z,84.05
2022-08-20T22:57:47.626Z,84.93
2022-08-20T23:00:16.760Z,85.91
2022-08-20T23:02:45.343Z,85.78
2022-08-20T23:05:15.664Z,86.60
2022-08-20T23:07:43.330Z,87.03
2022-08-20T23:10:12.699Z,87.08
2022-08-20T23:12:40.226Z,87.03
2022-08-20T23:15:08.410Z,87.74
2022-08-20T23:17:37.943Z,87.74
2022-08-20T23:20:06.024Z,87.88
2022-08-20T23:22:33.726Z,88.27
2022-08-20T23:25:01.394Z,88.54
2022-08-20T23:27:32.387Z,88.65
2022-08-20T23:30:00.006Z,89.54
2022-08-20T23:32:27.642Z,89.59
2022-08-20T23:34:55.653Z,89.87
2022-08-20T23:37:23.341Z,91.03
2022-08-20T23:39:51.075Z,91.63
2022-08-20T23:42:19.213Z,92.12
2022-08-20T23:44:48.303Z,92.06
2022-08-20T23:47:20.689Z,91.99
2022-08-20T23:49:48.666Z,91.73
2022-08-20T23:52:16.394Z,92.58
2022-08-20T23:54:44.133Z,92.88
2022-08-20T23:57:11.863Z,93.31
2022-08-20T23:59:41.529Z,93.95
